CST,Max TemperatureF,Mean TemperatureF,Min TemperatureF,Max Dew PointF,MeanDew PointF,Min DewpointF,Max Humidity, Mean Humidity, Min Humidity, Max Sea Level PressureIn, Mean Sea Level PressureIn, Min Sea Level PressureIn, Max VisibilityMiles, Mean VisibilityMiles, Min VisibilityMiles, Max Wind SpeedMPH, Mean Wind SpeedMPH, Max Gust SpeedMPH,PrecipitationIn, CloudCover, Events, WindDirDegrees
2013-1-1,24,18,10,19,13,7,86,76,62,30.26,30.20,30.13,10,10,7,9,6,,0.00,2,,324
2013-1-2,28,16,5,18,11,2,89,78,56,30.25,30.20,30.15,10,10,7,13,3,16,0.00,0,,189
2013-1-3,35,26,18,29,22,14,85,79,72,30.37,30.26,30.16,10,10,7,8,4,,0.03,7,,264
2013-1-4,36,25,14,25,19,10,86,74,62,30.36,30.31,30.28,10,10,10,10,5,22,0.00,0,,231
2013-1-5,39,29,19,33,27,16,96,83,70,30.28,30.18,30.02,10,9,1,12,4,,0.02,5,Rain-Snow,194
2013-1-6,38,28,19,32,24,18,93,78,70,30.36,30.20,30.01,10,10,7,17,7,25,0.02,4,,285
2013-1-7,40,29,18,29,25,16,93,81,63,30.37,30.27,30.14,10,9,4,18,8,25,0.00,0,,181
2013-1-8,46,36,26,36,30,24,91,79,60,30.19,30.13,30.09,10,9,4,15,7,,0.00,2,,171
2013-1-9,50,39,28,36,32,27,94,71,51,30.51,30.34,30.11,10,10,10,10,6,17,0.00,1,,275
2013-1-10,51,40,29,51,36,28,98,88,65,30.48,30.18,29.79,10,6,0,14,7,18,0.54,5,Fog-Rain,110
2013-1-11,59,54,49,55,50,47,98,87,72,29.85,29.77,29.73,10,9,2,22,10,29,0.18,3,Rain,194
2013-1-12,53,42,31,49,39,29,93,81,66,29.98,29.89,29.77,10,9,5,13,8,22,0.09,3,Rain,301
2013-1-13,31,24,16,30,19,12,94,83,76,30.31,30.10,29.90,10,10,4,10,6,16,0.01,6,,308
2013-1-14,26,20,15,18,15,11,90,80,69,30.47,30.43,30.33,10,10,10,8,2,,0.00,0,,321
2013-1-15,30,21,12,24,18,10,92,82,64,30.43,30.32,30.14,10,10,7,12,2,,0.00,1,,57
2013-1-16,39,28,18,28,23,16,92,72,55,30.14,30.05,29.95,10,10,7,12,3,22,0.02,4,,235
2013-1-17,37,31,24,31,25,18,92,72,47,30.45,30.30,30.10,10,10,10,13,4,20,0.00,1,,337
2013-1-18,45,33,21,32,26,18,88,72,54,30.46,30.26,30.05,10,10,2,25,7,33,0.00,0,,190
2013-1-19,57,46,35,38,33,27,80,63,44,30.06,29.95,29.84,10,10,10,17,9,26,0.00,0,,231
2013-1-20,37,28,19,28,13,9,84,66,49,30.35,30.28,30.08,10,9,3,17,9,26,0.00,4,Snow,307
2013-1-21,19,13,7,14,1,-4,78,59,40,30.37,30.30,30.24,10,10,10,16,9,25,0.00,3,Snow,294
2013-1-22,17,10,4,2,-2,-5,75,57,40,30.45,30.39,30.35,10,10,10,9,5,,0.00,2,,282
2013-1-23,36,25,14,19,10,1,67,54,41,30.36,30.24,30.11,10,10,10,12,4,22,0.00,4,,263
2013-1-24,26,18,10,11,5,-1,75,54,44,30.62,30.48,30.32,10,10,5,17,10,23,0.00,1,Snow,66
2013-1-25,39,30,22,22,16,6,82,58,42,30.28,30.13,30.04,10,10,3,12,7,20,0.00,4,Snow,230
2013-1-26,33,24,14,19,13,9,80,61,38,30.41,30.33,30.20,10,10,10,10,4,,0.00,0,,58
2013-1-27,45,34,24,44,30,18,97,85,70,30.35,30.13,29.92,10,6,1,18,10,25,0.27,6,Rain,151
2013-1-28,60,52,45,58,53,45,98,94,88,29.95,29.90,29.82,5,3,0,16,9,22,0.00,8,Fog-Rain,184
2013-1-29,65,58,52,60,57,51,97,91,83,29.82,29.61,29.41,10,7,1,26,14,33,1.37,7,Rain-Thunderstorm,185
2013-1-30,52,38,23,52,34,14,98,86,67,29.80,29.48,29.30,10,9,3,17,8,34,0.16,8,Rain-Snow,269
2013-1-31,26,17,8,19,10,-1,81,68,58,30.30,30.01,29.81,10,9,4,16,10,29,0.00,7,Snow,286